x

South Kodiak - 310nm Ssw Of Kodiak, Ak (46066) Wave Buoy

3:50pm - Sat 30th Aug 2014 All times are UTC.

  • Sig Wave height 5.2ft
  • Swell Direction
  • Peak Period 16s
  • Average Period 6s
  • Wind
    16mph, 20mph gusts
  • Sea Temp 57°f
  • Air Temp 56°f
  • Sea Pressure 1005.6mb

More Historic Weather Station data

Upgrade to MSW Pro to gain access to the past 30 days of data for over 8000 Wavebouys and Weather Stations around the globe.

Join Pro

Comparision Forecast

View Surf forecast
   
Sat 08/30 3:50pm 5ft 16s 6s 16 20 mph 1005.6mb 57f 56f
2:50pm 5ft 16s 6s 16 20 mph 1005.7mb 57f 56f
1:50pm 5ft 16s 6s 18 22 mph 1006.3mb 57f 56f
12:50pm 5.5ft 16s 6s 16 20 mph 1006.5mb 57f 56f
11:50am 5.5ft 16s 6s 18 20 mph 1007.2mb 57f 56f
10:50am 4.5ft 16s 6s 16 18 mph 1007.8mb 57f 56f
9:50am 5ft 16s 6s 16 18 mph 1008.4mb 57f 56f
8:50am 5ft 16s 6s 18 20 mph 1008.6mb 57f 56f
7:50am 4ft 16s 6s 13 16 mph 1008.9mb 57f 56f
6:50am 3.5ft 16s 6s 16 18 mph 1009.4mb 57f 56f
5:50am 3.5ft 16s 6s 11 13 mph 1009.8mb 57f 56f
4:50am 4ft 16s 6s 11 13 mph 1009.7mb 57f 55f
3:50am 4.5ft 16s 6s 13
mph
1009.9mb 57f 56f
2:50am 4.5ft 16s 6s 16 18 mph 1010.2mb 57f 56f
1:50am 4.5ft 17s 6s 16 18 mph 1010.4mb 57f 56f
12:50am 4.5ft 14s 6s 16 18 mph 1010.4mb 57f 56f
Fri 08/29 11:50pm 4.5ft 17s 6s 13 18 mph 1010.4mb 57f 56f
10:50pm 5ft 8s 6s 11 13 mph 1011.4mb 57f 56f
9:50pm 4.5ft 17s 6s 9 11 mph 1011.6mb 57f 56f
8:50pm 5ft 8s 6s 9 11 mph 1011.6mb 56f 56f
7:50pm 4.5ft 9s 6s 11 13 mph 1011.4mb 56f 56f
6:50pm 4.5ft 7s 6s 11 13 mph 1011.5mb 56f 56f
5:50pm 4ft 15s 6s 9 11 mph 1011.5mb 56f 56f
4:50pm 4ft 6s 6s 11 13 mph 1011.7mb 56f 56f
3:50pm 4.5ft 9s 6s 11 13 mph 1011.5mb 56f 56f
2:50pm 5ft 7s 6s 9 13 mph 1011.5mb 56f 56f
1:50pm 5ft 8s 6s 11 13 mph 1011.9mb 56f 56f
12:50pm 5.5ft 8s 6s 11 13 mph 1012.1mb 57f 56f
11:50am 6ft 7s 6s 11 13 mph 1011.9mb 57f 56f
10:50am 6ft 9s 6s 11 13 mph 1011.9mb 57f 56f
9:50am 6.5ft 8s 6s 11 13 mph 1012.1mb 57f 56f
8:50am 7ft 8s 6s 11 13 mph 1011.8mb 57f 56f
7:50am 6ft 8s 6s 11 16 mph 1011.8mb 57f 56f
6:50am 7ft 8s 6s 11 13 mph 1011.4mb 57f 56f
5:50am 6.5ft 9s 6s 13 16 mph 1011.4mb 57f 56f
4:50am 6ft 8s 6s 11 16 mph 1011.2mb 57f 57f
3:50am 6ft 9s 6s 13 16 mph 1011.2mb 57f 57f
2:50am 6ft 8s 6s 13 18 mph 1011.2mb 57f 57f
1:50am 7ft 7s 6s 16 20 mph 1010.9mb 57f 57f
12:50am 6.5ft 9s 6s 18 20 mph 1010.5mb 57f 57f
Thu 08/28 11:50pm 8ft 10s 6s 18 22 mph 1010.3mb 57f 57f
10:50pm 8ft 9s 6s 18 22 mph 1010.4mb 57f 57f
9:50pm 8ft 9s 7s 18 22 mph 1010.3mb 56f 57f
8:50pm 9ft 8s 7s 20 22 mph 1010.3mb 56f 57f
7:50pm 10.5ft 9s 7s 18 22 mph 1009.9mb 56f 57f
6:50pm 10ft 9s 7s 22 27 mph 1009.5mb 56f 57f
5:50pm 11ft 10s 7s 22 27 mph 1008.8mb 56f 56f
4:50pm 9ft 10s 7s 22 27 mph 1008.8mb 56f 56f
3:50pm 9ft 10s 7s 20 27 mph 1008.3mb 56f 56f
2:50pm 9.5ft 9s 7s 25 27 mph 1007.8mb 56f 56f
1:50pm 9ft 10s 7s 22 27 mph 1007.6mb 56f 56f
12:50pm 9.5ft 11s 7s 25 29 mph 1007.3mb 56f 57f
11:50am 10ft 10s 7s 22 27 mph 1007.2mb 56f 56f
10:50am 10ft 10s 7s 25 29 mph 1006.8mb 56f 57f
9:50am 12ft 10s 7s 25 29 mph 1006.6mb 56f 56f
8:50am 12ft 10s 7s 25 29 mph 1006.2mb 56f 57f
7:50am 12.5ft 10s 7s 25 29 mph 1005.8mb 56f 57f
6:50am 13.5ft 10s 7s 25 29 mph 1005.6mb 57f 56f
5:50am 13ft 10s 7s 29 36 mph 1005.2mb 57f 56f
4:50am 12.5ft 9s 7s 27 34 mph 1005.4mb 57f 56f
3:50am 12ft 9s 7s 29 38 mph 1005.9mb 57f 56f
2:50am 11.5ft 10s 7s 29 36 mph 1006.9mb 57f 56f
1:50am 12ft 9s 7s 29 36 mph 1007.8mb 57f 56f
12:50am 13ft 8s 7s 29 34 mph 1008.9mb 57f 57f
Wed 08/27 11:50pm 12ft 8s 7s 29 36 mph 1010.1mb 57f 57f
10:50pm 10ft 8s 6s 29 38 mph 1010.7mb 57f 57f
9:50pm 9ft 8s 6s 29 36 mph 1011.3mb 57f 57f
8:50pm 9.5ft 8s 6s 27 34 mph 1012mb 57f 56f
7:50pm 9ft 8s 6s 27 34 mph 1012.5mb 57f 56f
6:50pm 10ft 8s 6s 27 34 mph 1013.1mb 57f 56f
5:50pm 9ft 8s 6s 27 34 mph 1013.8mb 57f 56f
4:50pm 8ft 7s 6s 27 34 mph 1014.4mb 57f 56f
3:50pm 8ft 7s 6s 29 34 mph 1015mb 57f 56f
2:50pm 7ft 6s 5s 27 34 mph 1015.6mb 57f 56f
1:50pm 6ft 6s 5s 27 34 mph 1016.4mb 57f 56f
12:50pm 5.5ft 5s 5s 25 31 mph 1017mb 57f 56f
11:50am 5ft 6s 5s 22 27 mph 1017.9mb 57f 56f
10:50am 5ft 8s 5s 18 22 mph 1018.7mb 57f 56f
9:50am 5.5ft 7s 5s 18 22 mph 1019.5mb 57f 56f
8:50am 5.5ft 8s 5s 16 20 mph 1020.1mb 57f 56f
7:50am 5ft 8s 6s 16 18 mph 1020.7mb 57f 56f
6:50am 5.5ft 7s 6s 16 18 mph 1020.9mb 57f 56f
5:50am 5ft 8s 6s 13 16 mph 1020.8mb 57f 56f
4:50am 5ft 7s 6s 13 16 mph 1020.8mb 57f 56f
3:50am 5ft 8s 6s 13 16 mph 1021.2mb 57f 57f
2:50am 5ft 13s 6s 13 18 mph 1021.2mb 57f 56f
1:50am 5ft 8s 6s 16 18 mph 1021.2mb 57f 56f
12:50am 5.5ft 9s 6s 16 20 mph 1021.2mb 57f 57f
Tue 08/26 11:50pm 5.5ft 7s 6s 16 20 mph 1021.3mb 57f 56f
10:50pm 7ft 9s 6s 18 20 mph 1021.3mb 57f 57f
9:50pm 7ft 8s 6s 18 20 mph 1021.2mb 57f 57f
8:50pm 7.5ft 9s 6s 18 20 mph 1021.3mb 57f 57f
7:50pm 8ft 9s 7s 18 20 mph 1021mb 57f 57f
6:50pm 8ft 9s 6s 18 22 mph 1020.7mb 57f 57f
5:50pm 8ft 10s 7s 18 20 mph 1020.4mb 57f 56f
4:50pm 9ft 9s 7s 18 22 mph 1019.9mb 57f 56f